Aviation Digital Data Service (ADDS)

Output produced by METARs form (1936 UTC 25 March 2017)
found at http://www.aviationweather.gov/adds/metars/
 
EYKA 251920Z 33006KT 270V060 9999 BKN007 OVC011 02/00 Q1016 R08/29//95
TAF EYKA 251700Z 2518/2618 35014KT 9000 BKN010 BKN020 
     TEMPO 2518/2524 3000 SHRA BKN005 BKN015CB 
     BECMG 2600/2601 VRB04KT 4000 BR OVC005 
     TEMPO 2601/2606 1000 
     BECMG 2608/2609 30014KT 9000 BKN010
       
EYPA 251920Z AUTO 35006KT 310V020 9999 NCD 02/M00 Q1020
TAF EYPA 251700Z 2518/2618 VRB04KT 9000 SCT010 SCT020 
     TEMPO 2518/2524 4000 BR SCT005 
     TEMPO 2600/2606 1000 BR BKN003 
     BECMG 2609/2610 25014KT BKN010
       
EYSA 251920Z 01012KT 9999 OVC004 01/01 Q1018 R32R/29//95 R32L/29//95 YLO2 TEMPO SCT005 BKN008 YLO1
TAF EYSA 251700Z 2518/2603 33014KT 5000 BR SCT005 OVC010 
     TEMPO 2518/2521 1500 RASN OVC005 
     TEMPO 2521/2603 1500 OVC003
       
EYVI 251920Z 02006KT 9999 BKN004 OVC021 01/M00 Q1014 R01/2///95 NOSIG
TAF COR EYVI 251700Z 2518/2618 33010KT 4000 BR BKN005 OVC010 
     TEMPO 2518/2522 0800 +RASN BKN003 
     TEMPO 2522/2606 1000 OVC003 
     BECMG 2608/2610 27014KT 7000 BKN013